createdAt,value
2018-06-30T00:00:18.176Z,59.82
2018-06-30T00:01:54.284Z,59.48
2018-06-30T00:03:35.735Z,60.08
2018-06-30T00:05:16.647Z,60.09
2018-06-30T00:06:53.724Z,59.31
2018-06-30T00:08:29.698Z,59.50
2018-06-30T00:10:06.546Z,58.92
2018-06-30T00:11:43.708Z,59.39
2018-06-30T00:13:21.201Z,59.76
2018-06-30T00:14:57.658Z,59.69
2018-06-30T00:16:36.058Z,59.21
2018-06-30T00:18:12.767Z,59.78
2018-06-30T00:19:51.252Z,59.91
2018-06-30T00:21:30.364Z,60.03
2018-06-30T00:23:06.731Z,61.00
2018-06-30T00:24:44.129Z,60.56
2018-06-30T00:26:21.001Z,60.80
2018-06-30T00:27:58.458Z,61.34
2018-06-30T00:29:35.430Z,61.94
2018-06-30T00:31:12.134Z,62.07
2018-06-30T00:32:51.262Z,62.04
2018-06-30T00:34:27.575Z,63.01
2018-06-30T00:36:06.344Z,62.88
2018-06-30T00:37:42.032Z,63.23
2018-06-30T00:39:21.196Z,63.45
2018-06-30T00:40:57.058Z,63.78
2018-06-30T00:42:32.982Z,63.73
2018-06-30T00:44:10.650Z,64.29
2018-06-30T00:45:47.104Z,64.51
2018-06-30T00:47:25.332Z,64.58
2018-06-30T00:49:00.995Z,65.98
2018-06-30T00:50:38.780Z,65.93
2018-06-30T00:52:22.788Z,66.72
2018-06-30T00:54:13.594Z,67.05
2018-06-30T00:55:51.283Z,66.46
2018-06-30T00:57:28.076Z,67.36
2018-06-30T00:59:13.038Z,67.16
2018-06-30T01:00:53.265Z,67.84
2018-06-30T01:02:29.067Z,69.03
2018-06-30T01:04:07.663Z,69.30
2018-06-30T01:05:45.824Z,68.88
2018-06-30T01:07:24.719Z,68.45
2018-06-30T01:09:01.859Z,69.15
2018-06-30T01:10:40.768Z,68.92
2018-06-30T01:12:17.238Z,69.40
2018-06-30T01:13:53.150Z,69.57
2018-06-30T01:15:30.760Z,69.88
2018-06-30T01:17:07.988Z,69.46
2018-06-30T01:18:45.961Z,70.02
2018-06-30T01:20:27.645Z,69.73
2018-06-30T01:22:05.787Z,69.49
2018-06-30T01:23:42.647Z,69.45
2018-06-30T01:25:18.385Z,70.15
2018-06-30T01:26:53.752Z,70.18
2018-06-30T01:28:30.311Z,69.72
2018-06-30T01:30:15.383Z,70.12
2018-06-30T01:31:51.284Z,70.11
2018-06-30T01:33:26.704Z,70.55
2018-06-30T01:35:02.794Z,70.76
2018-06-30T01:36:38.309Z,71.16
2018-06-30T01:38:15.096Z,70.85
2018-06-30T01:39:50.509Z,71.11
2018-06-30T01:41:26.663Z,71.06
2018-06-30T01:43:03.300Z,71.50
2018-06-30T01:44:38.812Z,71.43
2018-06-30T01:46:14.809Z,70.95
2018-06-30T01:47:50.478Z,71.30
2018-06-30T01:49:27.968Z,71.75
2018-06-30T01:51:03.130Z,71.65
2018-06-30T01:52:39.084Z,72.01
2018-06-30T01:54:17.920Z,72.21
2018-06-30T01:55:55.355Z,71.81
2018-06-30T01:57:32.507Z,72.11
2018-06-30T01:59:10.245Z,72.20
2018-06-30T02:00:45.922Z,72.55
2018-06-30T02:02:21.395Z,72.53
2018-06-30T02:03:57.512Z,72.96
2018-06-30T02:05:32.956Z,73.00
2018-06-30T02:07:13.903Z,73.26
2018-06-30T02:08:49.933Z,73.52
2018-06-30T02:10:25.885Z,73.51
2018-06-30T02:12:01.043Z,73.33
2018-06-30T02:13:37.511Z,74.28
2018-06-30T02:15:15.895Z,74.89
2018-06-30T02:16:51.336Z,74.73
2018-06-30T02:18:28.071Z,75.53
2018-06-30T02:20:03.913Z,75.48
2018-06-30T02:21:39.753Z,75.42
2018-06-30T02:23:14.958Z,75.51
2018-06-30T02:24:50.837Z,76.03
2018-06-30T02:26:27.125Z,76.47
2018-06-30T02:28:02.738Z,76.09
2018-06-30T02:29:38.137Z,76.96
2018-06-30T02:31:13.328Z,76.31
2018-06-30T02:32:49.476Z,76.75
2018-06-30T02:34:28.385Z,76.77
2018-06-30T02:36:05.141Z,76.94
2018-06-30T02:37:42.247Z,77.37
2018-06-30T02:39:18.026Z,77.77
2018-06-30T02:40:53.802Z,77.58
2018-06-30T02:42:30.324Z,77.11
2018-06-30T02:44:05.515Z,78.02
2018-06-30T02:45:42.214Z,78.32
2018-06-30T02:47:19.175Z,77.81
2018-06-30T02:48:57.701Z,78.38
2018-06-30T02:50:37.537Z,78.18
2018-06-30T02:52:13.553Z,78.42
2018-06-30T02:53:51.567Z,78.54
2018-06-30T02:55:30.421Z,78.65
2018-06-30T02:57:11.571Z,78.73
2018-06-30T02:58:48.659Z,78.94
2018-06-30T03:00:24.316Z,79.37
2018-06-30T03:02:02.259Z,78.89
2018-06-30T03:03:39.161Z,79.24
2018-06-30T03:05:15.705Z,79.64
2018-06-30T03:06:51.819Z,79.98
2018-06-30T03:08:27.670Z,79.62
2018-06-30T03:10:05.892Z,79.43
2018-06-30T03:11:43.217Z,80.35
2018-06-30T03:13:20.530Z,79.52
2018-06-30T03:14:58.474Z,80.38
2018-06-30T03:16:34.841Z,79.84
2018-06-30T03:18:11.572Z,80.25
2018-06-30T03:19:48.953Z,80.03
2018-06-30T03:21:31.481Z,80.64
2018-06-30T03:23:07.639Z,80.89
2018-06-30T03:24:43.767Z,80.70
2018-06-30T03:26:20.576Z,80.57
2018-06-30T03:27:59.667Z,80.84
2018-06-30T03:29:36.257Z,81.05
2018-06-30T03:31:12.356Z,81.43
2018-06-30T03:32:50.390Z,80.63
2018-06-30T03:34:26.320Z,80.22
2018-06-30T03:36:02.188Z,80.02
2018-06-30T03:37:38.197Z,80.33
2018-06-30T03:39:13.867Z,80.62
2018-06-30T03:40:50.052Z,80.72
2018-06-30T03:42:26.931Z,80.59
2018-06-30T03:44:03.652Z,80.44
2018-06-30T03:45:39.109Z,79.93
2018-06-30T03:47:16.037Z,79.92
2018-06-30T03:48:52.360Z,80.66
2018-06-30T03:50:30.066Z,80.45
2018-06-30T03:52:05.848Z,81.33
2018-06-30T03:53:41.732Z,81.32
2018-06-30T03:55:17.786Z,80.35
2018-06-30T03:56:53.926Z,80.22
2018-06-30T03:58:30.612Z,80.87
2018-06-30T04:00:09.799Z,80.52
2018-06-30T04:01:46.520Z,80.07
2018-06-30T04:03:23.529Z,80.13
2018-06-30T04:04:59.813Z,79.27
2018-06-30T04:06:35.950Z,78.88
2018-06-30T04:08:11.411Z,77.83
2018-06-30T04:09:47.234Z,76.79
2018-06-30T04:11:23.941Z,77.14
2018-06-30T04:13:00.394Z,76.00
2018-06-30T04:14:36.174Z,75.49
2018-06-30T04:16:12.684Z,75.32
2018-06-30T04:17:49.215Z,74.78
2018-06-30T04:19:25.069Z,73.98
2018-06-30T04:21:01.103Z,73.82
2018-06-30T04:22:38.741Z,72.99
2018-06-30T04:24:14.580Z,72.51
2018-06-30T04:25:50.837Z,72.77
2018-06-30T04:27:26.730Z,72.34
2018-06-30T04:29:11.645Z,72.32
2018-06-30T04:30:51.739Z,72.27
2018-06-30T04:32:30.061Z,71.97
2018-06-30T04:34:11.176Z,70.52
2018-06-30T04:35:48.745Z,70.66
2018-06-30T04:37:25.183Z,70.43
2018-06-30T04:39:00.780Z,70.02
2018-06-30T04:40:36.589Z,69.57
2018-06-30T04:42:13.100Z,70.15
2018-06-30T04:43:49.410Z,69.06
2018-06-30T04:45:25.516Z,69.34
2018-06-30T04:47:01.899Z,68.87
2018-06-30T04:48:38.026Z,69.04
2018-06-30T04:50:15.619Z,68.24
2018-06-30T04:51:52.023Z,67.88
2018-06-30T04:53:28.130Z,68.34
2018-06-30T04:55:03.951Z,67.76
2018-06-30T04:56:39.695Z,67.38
2018-06-30T04:58:20.769Z,66.29
2018-06-30T04:59:59.380Z,65.98
2018-06-30T05:01:35.402Z,66.05
2018-06-30T05:03:12.172Z,65.35
2018-06-30T05:04:49.394Z,64.79
2018-06-30T05:06:26.413Z,65.25
2018-06-30T05:08:03.971Z,64.45
2018-06-30T05:09:40.293Z,64.34
2018-06-30T05:11:16.574Z,62.90
2018-06-30T05:12:53.267Z,63.00
2018-06-30T05:14:30.871Z,62.85
2018-06-30T05:16:07.550Z,61.65
2018-06-30T05:17:44.182Z,61.29
2018-06-30T05:19:20.687Z,62.00
2018-06-30T05:20:57.047Z,61.19
2018-06-30T05:22:32.750Z,60.72
2018-06-30T05:24:10.573Z,61.03
2018-06-30T05:25:46.850Z,59.96
2018-06-30T05:27:25.242Z,60.62
2018-06-30T05:29:02.060Z,60.29
2018-06-30T05:30:38.110Z,59.85
2018-06-30T05:32:16.313Z,60.14
2018-06-30T05:33:52.580Z,59.79
2018-06-30T05:35:29.131Z,58.35
2018-06-30T05:37:05.163Z,58.96
2018-06-30T05:38:42.299Z,57.82
2018-06-30T05:40:18.135Z,58.66
2018-06-30T05:41:55.271Z,57.57
2018-06-30T05:43:31.915Z,58.01
2018-06-30T05:45:08.590Z,56.87
2018-06-30T05:46:44.879Z,57.30
2018-06-30T05:48:20.534Z,57.30
2018-06-30T05:49:56.984Z,56.70
2018-06-30T05:51:34.159Z,57.01
2018-06-30T05:53:09.873Z,55.89
2018-06-30T05:54:45.365Z,56.36
2018-06-30T05:56:21.315Z,55.74
2018-06-30T05:57:58.772Z,56.29
2018-06-30T05:59:34.857Z,54.80
2018-06-30T06:01:10.811Z,55.63
2018-06-30T06:02:46.933Z,55.14
2018-06-30T06:04:22.620Z,54.50
2018-06-30T06:05:58.253Z,54.00
2018-06-30T06:07:34.487Z,53.57
2018-06-30T06:09:12.078Z,53.80
2018-06-30T06:10:48.091Z,53.56
2018-06-30T06:12:25.373Z,52.26
2018-06-30T06:14:03.574Z,53.09
2018-06-30T06:15:56.210Z,51.81
2018-06-30T06:17:33.223Z,52.40
2018-06-30T06:19:10.130Z,52.86
2018-06-30T06:20:46.511Z,52.30
2018-06-30T06:22:22.599Z,52.46
2018-06-30T06:23:59.210Z,51.77
2018-06-30T06:25:35.976Z,51.73
2018-06-30T06:27:13.160Z,50.43
2018-06-30T06:28:49.744Z,50.67
2018-06-30T06:30:27.080Z,50.81
2018-06-30T06:32:05.532Z,50.01
2018-06-30T06:33:41.881Z,50.58
2018-06-30T06:35:18.626Z,49.82
2018-06-30T06:36:57.512Z,49.11
2018-06-30T06:38:33.710Z,48.79
2018-06-30T06:40:11.500Z,50.73
2018-06-30T06:41:48.964Z,50.46
2018-06-30T06:43:25.206Z,48.43
2018-06-30T06:45:03.677Z,49.20
2018-06-30T06:46:40.342Z,48.49
2018-06-30T06:48:22.579Z,48.95
2018-06-30T06:50:00.365Z,48.71
2018-06-30T06:51:36.475Z,47.85
2018-06-30T06:53:13.520Z,47.97
2018-06-30T06:55:20.057Z,47.93
2018-06-30T06:58:55.678Z,47.60
2018-06-30T07:00:33.961Z,47.95
2018-06-30T07:02:09.833Z,47.70
2018-06-30T07:03:52.590Z,46.71
2018-06-30T07:05:29.516Z,46.90
2018-06-30T07:07:06.351Z,47.58
2018-06-30T07:08:42.660Z,47.08
2018-06-30T07:10:21.530Z,46.32
2018-06-30T07:11:58.569Z,46.44
2018-06-30T07:13:34.777Z,46.64
2018-06-30T07:15:13.971Z,46.88
2018-06-30T07:16:53.339Z,46.32
2018-06-30T07:18:38.880Z,45.05
2018-06-30T07:20:30.720Z,45.27
2018-06-30T07:22:07.164Z,45.18
2018-06-30T07:23:47.640Z,44.08
2018-06-30T07:25:24.679Z,43.91
2018-06-30T07:27:03.420Z,44.62
2018-06-30T07:28:39.730Z,45.24
2018-06-30T07:30:19.644Z,44.26
2018-06-30T07:32:02.691Z,43.60
2018-06-30T07:34:12.338Z,44.27
2018-06-30T07:36:16.117Z,43.40
2018-06-30T07:38:07.372Z,42.08
2018-06-30T07:41:32.679Z,43.13
2018-06-30T07:43:08.849Z,42.67
2018-06-30T07:44:46.076Z,41.83
2018-06-30T07:46:22.270Z,41.50
2018-06-30T07:48:01.088Z,42.59
2018-06-30T07:49:42.543Z,41.74
2018-06-30T07:51:19.773Z,40.11
2018-06-30T07:52:55.613Z,40.96
2018-06-30T07:54:33.043Z,39.57
2018-06-30T07:56:10.923Z,40.13
2018-06-30T07:58:11.856Z,39.80
2018-06-30T08:01:45.409Z,41.06
2018-06-30T08:03:20.994Z,40.32
2018-06-30T08:04:56.272Z,39.96
2018-06-30T08:06:31.474Z,40.95
2018-06-30T08:08:08.477Z,39.94
2018-06-30T08:09:49.625Z,40.48
2018-06-30T08:11:26.625Z,38.55
2018-06-30T08:13:02.616Z,39.45
2018-06-30T08:14:37.582Z,40.00
2018-06-30T08:16:14.088Z,39.00
2018-06-30T08:17:49.860Z,40.70
2018-06-30T08:19:29.753Z,39.27
2018-06-30T08:21:04.889Z,39.85
2018-06-30T08:22:42.124Z,39.10
2018-06-30T08:24:18.482Z,39.64
2018-06-30T08:25:56.678Z,38.34
2018-06-30T08:27:31.719Z,38.60
2018-06-30T08:29:07.065Z,38.60
2018-06-30T08:30:43.493Z,37.65
2018-06-30T08:32:18.799Z,38.62
2018-06-30T08:33:54.513Z,37.75
2018-06-30T08:35:31.677Z,37.98
2018-06-30T08:37:07.217Z,37.89
2018-06-30T08:38:42.397Z,37.07
2018-06-30T08:40:17.675Z,38.94
2018-06-30T08:41:55.264Z,36.53
2018-06-30T08:43:32.590Z,37.33
2018-06-30T08:45:08.618Z,35.55
2018-06-30T08:46:46.070Z,37.80
2018-06-30T08:48:22.100Z,35.00
2018-06-30T08:49:57.813Z,35.51
2018-06-30T08:51:34.035Z,36.61
2018-06-30T08:53:10.615Z,35.51
2018-06-30T08:54:46.585Z,36.83
2018-06-30T08:56:26.945Z,37.36
2018-06-30T08:58:03.995Z,35.51
2018-06-30T08:59:42.104Z,35.67
2018-06-30T09:01:17.237Z,36.69
2018-06-30T09:02:52.303Z,34.25
2018-06-30T09:04:29.582Z,34.10
2018-06-30T09:06:05.047Z,35.35
2018-06-30T09:07:43.926Z,34.29
2018-06-30T09:09:20.474Z,34.70
2018-06-30T09:10:57.272Z,33.49
2018-06-30T09:12:34.023Z,34.02
2018-06-30T09:14:12.299Z,33.44
2018-06-30T09:15:48.807Z,34.96
2018-06-30T09:17:26.605Z,34.56
2018-06-30T09:19:06.572Z,34.77
2018-06-30T09:20:52.828Z,34.33
2018-06-30T09:22:31.823Z,34.82
2018-06-30T09:24:10.374Z,34.95
2018-06-30T09:25:49.593Z,34.93
2018-06-30T09:34:41.515Z,35.78
2018-06-30T09:36:18.287Z,31.78
2018-06-30T09:37:54.756Z,33.63
2018-06-30T09:39:30.105Z,33.76
2018-06-30T09:41:06.423Z,34.02
2018-06-30T09:42:43.333Z,35.73
2018-06-30T09:44:21.038Z,34.70
2018-06-30T09:45:56.824Z,33.55
2018-06-30T09:47:33.855Z,33.89
2018-06-30T09:49:12.519Z,33.49
2018-06-30T09:50:48.624Z,32.98
2018-06-30T09:52:56.490Z,33.34
2018-06-30T09:54:37.151Z,33.78
2018-06-30T09:56:19.700Z,33.68
2018-06-30T09:57:58.270Z,33.48
2018-06-30T09:59:34.216Z,33.98
2018-06-30T10:01:14.902Z,32.50
2018-06-30T10:02:50.647Z,33.45
2018-06-30T10:04:31.062Z,34.14
2018-06-30T10:06:11.557Z,36.02
2018-06-30T10:07:49.063Z,36.03
2018-06-30T10:09:25.360Z,37.54
2018-06-30T10:11:03.352Z,37.90
2018-06-30T10:12:41.751Z,39.19
2018-06-30T10:14:20.502Z,38.60
2018-06-30T10:15:57.062Z,37.27
2018-06-30T10:17:35.850Z,36.09
2018-06-30T10:19:12.563Z,39.17
2018-06-30T10:20:47.849Z,37.65
2018-06-30T10:22:24.044Z,37.64
2018-06-30T10:23:59.437Z,37.87
2018-06-30T10:25:35.013Z,39.88
2018-06-30T10:27:11.367Z,38.72
2018-06-30T10:28:46.478Z,40.31
2018-06-30T10:30:22.484Z,40.11
2018-06-30T10:32:01.323Z,39.32
2018-06-30T10:33:39.126Z,38.13
2018-06-30T10:35:16.574Z,36.46
2018-06-30T10:36:53.646Z,34.39
2018-06-30T10:38:29.929Z,34.37
2018-06-30T10:40:07.157Z,34.60
2018-06-30T10:41:42.873Z,36.35
2018-06-30T10:43:19.223Z,36.43
2018-06-30T10:44:56.311Z,36.06
2018-06-30T10:46:33.195Z,34.51
2018-06-30T10:48:09.069Z,34.62
2018-06-30T10:49:53.929Z,33.53
2018-06-30T10:51:31.262Z,31.91
2018-06-30T10:53:07.800Z,31.29
2018-06-30T10:54:49.894Z,30.91
2018-06-30T10:56:32.121Z,31.75
2018-06-30T10:58:10.878Z,30.91
2018-06-30T10:59:50.038Z,31.05
2018-06-30T11:01:27.023Z,29.29
2018-06-30T11:03:06.034Z,30.62
2018-06-30T11:04:42.917Z,33.18
2018-06-30T11:06:19.553Z,30.80
2018-06-30T11:07:57.315Z,32.56
2018-06-30T11:09:35.347Z,30.15
2018-06-30T11:11:12.245Z,30.52
2018-06-30T11:12:48.838Z,31.55
2018-06-30T11:14:25.293Z,28.36
2018-06-30T11:16:03.273Z,28.47
2018-06-30T11:17:39.152Z,28.07
2018-06-30T11:19:15.891Z,29.50
2018-06-30T11:20:51.963Z,29.16
2018-06-30T11:22:28.778Z,29.38
2018-06-30T11:24:09.099Z,29.79
2018-06-30T11:25:46.863Z,29.13
2018-06-30T11:27:22.763Z,28.83
2018-06-30T11:29:04.476Z,30.04
2018-06-30T11:30:40.327Z,30.66
2018-06-30T11:32:18.490Z,31.47
2018-06-30T11:33:56.377Z,30.58
2018-06-30T11:35:32.591Z,30.71
2018-06-30T11:37:09.780Z,29.99
2018-06-30T11:38:45.221Z,27.90
2018-06-30T11:40:20.619Z,30.73
2018-06-30T11:41:58.989Z,30.28
2018-06-30T11:43:36.829Z,28.10
2018-06-30T11:45:21.484Z,30.04
2018-06-30T11:47:02.703Z,28.33
2018-06-30T11:48:44.724Z,29.33
2018-06-30T11:50:23.903Z,28.96
2018-06-30T11:51:59.681Z,29.66
2018-06-30T11:53:38.897Z,29.15
2018-06-30T11:55:19.136Z,28.61
2018-06-30T11:56:54.321Z,29.82
2018-06-30T12:00:19.840Z,31.63
2018-06-30T12:01:57.333Z,30.96
2018-06-30T12:03:34.855Z,31.10
2018-06-30T12:05:15.502Z,30.84
2018-06-30T12:06:53.877Z,30.55
2018-06-30T12:08:31.991Z,31.35
2018-06-30T12:10:08.693Z,30.61
2018-06-30T12:11:48.054Z,32.94
2018-06-30T12:13:25.088Z,31.57
2018-06-30T12:15:04.947Z,31.07
2018-06-30T12:16:45.095Z,31.35
2018-06-30T12:18:21.045Z,30.58
2018-06-30T12:19:57.267Z,30.99
2018-06-30T12:21:36.692Z,32.58
2018-06-30T12:23:18.732Z,31.55
2018-06-30T12:24:58.409Z,32.38
2018-06-30T12:26:36.393Z,31.07
2018-06-30T12:28:13.273Z,30.43
2018-06-30T12:29:53.480Z,30.62
2018-06-30T12:31:31.887Z,31.52
2018-06-30T12:33:08.340Z,30.30
2018-06-30T12:34:43.444Z,29.37
2018-06-30T12:36:20.420Z,29.97
2018-06-30T12:37:55.571Z,32.83
2018-06-30T12:39:34.751Z,31.81
2018-06-30T12:41:11.390Z,32.35
2018-06-30T12:42:47.264Z,32.93
2018-06-30T12:44:26.099Z,33.38
2018-06-30T12:46:02.436Z,33.13
2018-06-30T12:47:41.521Z,32.79
2018-06-30T12:49:23.986Z,31.64
2018-06-30T12:50:59.622Z,31.91
2018-06-30T12:52:36.886Z,31.06
2018-06-30T12:54:13.471Z,30.82
2018-06-30T12:55:51.373Z,28.61
2018-06-30T12:57:27.155Z,29.13
2018-06-30T12:59:03.071Z,29.45
2018-06-30T13:00:37.988Z,29.24
2018-06-30T13:02:13.627Z,28.98
2018-06-30T13:03:49.368Z,28.17
2018-06-30T13:05:29.321Z,29.87
2018-06-30T13:07:04.739Z,28.30
2018-06-30T13:08:40.032Z,29.54
2018-06-30T13:10:20.520Z,27.36
2018-06-30T13:11:57.868Z,28.79
2018-06-30T13:13:33.698Z,28.42
2018-06-30T13:15:10.058Z,28.18
2018-06-30T13:16:46.476Z,28.89
2018-06-30T13:18:23.960Z,27.91
2018-06-30T13:19:59.473Z,27.87
2018-06-30T13:21:35.404Z,26.59
2018-06-30T13:23:14.898Z,27.79
2018-06-30T13:24:55.063Z,26.79
2018-06-30T13:26:31.035Z,27.83
2018-06-30T13:28:06.295Z,26.85
2018-06-30T13:29:41.764Z,26.35
2018-06-30T13:31:17.987Z,25.69
2018-06-30T13:32:53.233Z,26.30
2018-06-30T13:34:28.579Z,24.66
2018-06-30T13:36:04.083Z,26.23
2018-06-30T13:37:39.261Z,27.19
2018-06-30T13:39:15.590Z,27.43
2018-06-30T13:40:54.537Z,27.42
2018-06-30T13:43:34.864Z,26.57
2018-06-30T13:45:14.009Z,26.37
2018-06-30T13:46:50.168Z,25.91
2018-06-30T13:48:28.230Z,26.56
2018-06-30T13:50:07.105Z,25.74
2018-06-30T13:51:43.302Z,25.72
2018-06-30T13:53:35.580Z,26.91
2018-06-30T13:55:14.781Z,25.65
2018-06-30T13:56:51.597Z,25.67
2018-06-30T13:58:28.482Z,25.99
2018-06-30T14:00:08.783Z,25.98
2018-06-30T14:01:46.559Z,25.88
2018-06-30T14:03:23.802Z,25.63
2018-06-30T14:05:02.389Z,25.94
2018-06-30T14:06:37.669Z,25.98
2018-06-30T14:08:14.345Z,24.87
2018-06-30T14:09:52.525Z,26.10
2018-06-30T14:11:29.461Z,25.34
2018-06-30T14:13:07.761Z,25.78
2018-06-30T14:14:43.581Z,24.30
2018-06-30T14:16:21.709Z,26.40
2018-06-30T14:17:57.838Z,24.88
2018-06-30T14:19:40.536Z,26.13
2018-06-30T14:21:16.315Z,23.70
2018-06-30T14:22:52.709Z,25.55
2018-06-30T14:24:30.253Z,23.92
2018-06-30T14:26:06.547Z,25.40
2018-06-30T14:27:42.864Z,25.36
2018-06-30T14:29:19.078Z,24.18
2018-06-30T14:30:55.308Z,25.12
2018-06-30T14:32:32.186Z,24.37
2018-06-30T14:34:09.409Z,24.64
2018-06-30T14:35:47.465Z,24.70
2018-06-30T14:37:24.244Z,23.65
2018-06-30T14:39:04.132Z,23.36
2018-06-30T14:40:40.591Z,24.78
2018-06-30T14:42:15.984Z,24.45
2018-06-30T14:43:52.701Z,24.98
2018-06-30T14:45:29.115Z,24.27
2018-06-30T14:47:06.600Z,24.32
2018-06-30T14:48:41.960Z,24.52
2018-06-30T14:50:19.823Z,23.80
2018-06-30T14:52:02.279Z,22.98
2018-06-30T14:53:41.745Z,23.01
2018-06-30T14:55:22.277Z,23.10
2018-06-30T14:58:50.279Z,23.87
2018-06-30T15:00:28.902Z,23.27
2018-06-30T15:02:09.782Z,22.81
2018-06-30T15:03:47.484Z,21.91
2018-06-30T15:05:28.162Z,24.02
2018-06-30T15:07:08.110Z,24.59
2018-06-30T15:08:48.129Z,23.08
2018-06-30T15:10:28.033Z,23.34
2018-06-30T15:13:48.753Z,23.87
2018-06-30T15:15:25.443Z,23.33
2018-06-30T15:17:02.264Z,23.46
2018-06-30T15:18:41.316Z,23.08
2018-06-30T15:20:16.825Z,23.82
2018-06-30T15:21:55.502Z,22.83
2018-06-30T15:23:35.523Z,23.34
2018-06-30T15:25:12.312Z,23.35
2018-06-30T15:26:47.290Z,23.91
2018-06-30T15:28:22.724Z,23.55
2018-06-30T15:30:05.874Z,22.81
2018-06-30T15:31:42.724Z,23.00
2018-06-30T15:33:17.632Z,21.90
2018-06-30T15:34:54.633Z,22.50
2018-06-30T15:36:30.543Z,23.07
2018-06-30T15:38:07.597Z,22.42
2018-06-30T15:39:43.258Z,23.11
2018-06-30T15:41:19.720Z,22.17
2018-06-30T15:42:55.355Z,22.72
2018-06-30T15:44:33.022Z,22.77
2018-06-30T15:46:08.577Z,23.13
2018-06-30T15:47:46.483Z,22.68
2018-06-30T15:49:32.501Z,22.11
2018-06-30T15:51:09.469Z,22.37
2018-06-30T15:52:57.053Z,22.88
2018-06-30T15:54:32.949Z,21.81
2018-06-30T15:56:10.366Z,21.16
2018-06-30T15:57:46.260Z,23.82
2018-06-30T15:59:22.451Z,22.75
2018-06-30T16:00:57.511Z,23.07
2018-06-30T16:02:39.711Z,21.39
2018-06-30T16:04:14.959Z,21.91
2018-06-30T16:05:54.507Z,21.27
2018-06-30T16:07:29.650Z,21.60
2018-06-30T16:09:09.036Z,21.17
2018-06-30T16:10:45.468Z,22.30
2018-06-30T16:12:21.797Z,22.98
2018-06-30T16:13:58.911Z,22.44
2018-06-30T16:15:33.756Z,21.29
2018-06-30T16:17:09.150Z,21.88
2018-06-30T16:18:47.355Z,21.37
2018-06-30T16:20:24.766Z,21.53
2018-06-30T16:22:02.351Z,21.54
2018-06-30T16:23:40.313Z,21.86
2018-06-30T16:25:16.757Z,21.87
2018-06-30T16:26:51.877Z,21.19
2018-06-30T16:28:26.741Z,20.61
2018-06-30T16:30:04.549Z,21.93
2018-06-30T16:31:42.279Z,21.52
2018-06-30T16:33:21.042Z,21.73
2018-06-30T16:34:56.769Z,21.49
2018-06-30T16:36:33.264Z,20.51
2018-06-30T16:38:09.922Z,22.14
2018-06-30T16:39:47.912Z,21.88
2018-06-30T16:41:24.680Z,21.13
2018-06-30T16:43:01.297Z,21.99
2018-06-30T16:44:36.205Z,20.82
2018-06-30T16:46:14.511Z,20.72
2018-06-30T16:47:49.355Z,20.90
2018-06-30T16:49:24.866Z,21.19
2018-06-30T16:51:01.218Z,21.06
2018-06-30T16:52:40.732Z,21.71
2018-06-30T16:54:15.725Z,21.30
2018-06-30T16:55:55.111Z,21.71
2018-06-30T16:57:30.616Z,22.15
2018-06-30T16:59:07.402Z,20.82
2018-06-30T17:00:48.870Z,20.52
2018-06-30T17:02:23.889Z,21.87
2018-06-30T17:04:13.515Z,21.38
2018-06-30T17:05:48.590Z,21.29
2018-06-30T17:07:28.917Z,21.69
2018-06-30T17:09:10.335Z,22.47
2018-06-30T17:10:45.937Z,21.26
2018-06-30T17:12:21.807Z,21.17
2018-06-30T17:13:58.654Z,21.53
2018-06-30T17:15:41.109Z,21.91
2018-06-30T17:17:22.770Z,21.98
2018-06-30T17:18:59.036Z,21.60
2018-06-30T17:20:34.780Z,21.01
2018-06-30T17:22:11.509Z,22.05
2018-06-30T17:23:47.672Z,21.12
2018-06-30T17:25:25.328Z,21.98
2018-06-30T17:27:01.663Z,21.29
2018-06-30T17:28:41.817Z,22.61
2018-06-30T17:30:17.972Z,22.85
2018-06-30T17:31:56.819Z,21.93
2018-06-30T17:33:33.213Z,22.21
2018-06-30T17:35:09.980Z,22.65
2018-06-30T17:36:46.451Z,23.54
2018-06-30T17:38:21.644Z,22.37
2018-06-30T17:39:59.243Z,23.20
2018-06-30T17:41:42.629Z,22.91
2018-06-30T17:43:22.343Z,22.44
2018-06-30T17:44:59.222Z,23.47
2018-06-30T17:46:35.593Z,22.77
2018-06-30T17:49:52.516Z,22.28
2018-06-30T17:51:29.842Z,22.90
2018-06-30T17:53:05.324Z,22.21
2018-06-30T17:54:42.221Z,23.66
2018-06-30T17:56:18.365Z,23.91
2018-06-30T17:57:57.716Z,24.46
2018-06-30T17:59:36.038Z,23.94
2018-06-30T18:01:15.051Z,24.83
2018-06-30T18:02:52.850Z,24.33
2018-06-30T18:04:31.167Z,25.68
2018-06-30T18:06:07.245Z,24.45
2018-06-30T18:07:44.267Z,23.14
2018-06-30T18:10:57.192Z,23.53
2018-06-30T18:12:32.762Z,24.34
2018-06-30T18:14:09.473Z,23.68
2018-06-30T18:15:44.816Z,23.80
2018-06-30T18:17:20.399Z,24.04
2018-06-30T18:18:58.645Z,24.29
2018-06-30T18:20:33.569Z,24.47
2018-06-30T18:22:09.239Z,23.33
2018-06-30T18:23:45.361Z,24.57
2018-06-30T18:25:21.099Z,24.27
2018-06-30T18:26:58.614Z,24.92
2018-06-30T18:28:37.633Z,24.46
2018-06-30T18:30:16.887Z,24.17
2018-06-30T18:36:58.514Z,24.53
2018-06-30T18:38:35.883Z,24.90
2018-06-30T18:40:13.224Z,24.95
2018-06-30T18:42:21.981Z,25.89
2018-06-30T18:43:57.844Z,24.44
2018-06-30T18:45:35.280Z,25.48
2018-06-30T18:47:15.366Z,26.02
2018-06-30T18:48:53.494Z,24.73
2018-06-30T18:50:29.159Z,24.74
2018-06-30T18:52:04.319Z,25.19
2018-06-30T18:53:55.426Z,25.86
2018-06-30T18:55:32.197Z,25.48
2018-06-30T18:57:11.458Z,25.86
2018-06-30T18:58:49.734Z,25.18
2018-06-30T19:00:26.708Z,24.37
2018-06-30T19:02:09.843Z,25.23
2018-06-30T19:03:50.739Z,25.61
2018-06-30T19:05:27.195Z,24.96
2018-06-30T19:07:03.408Z,26.09
2018-06-30T19:08:38.913Z,26.07
2018-06-30T19:10:17.833Z,26.71
2018-06-30T19:11:54.953Z,25.98
2018-06-30T19:13:30.794Z,26.14
2018-06-30T19:15:24.284Z,27.09
2018-06-30T19:17:03.825Z,27.29
2018-06-30T19:18:41.820Z,27.42
2018-06-30T19:20:17.829Z,27.23
2018-06-30T19:21:56.004Z,28.23
2018-06-30T19:23:31.668Z,27.68
2018-06-30T19:25:09.635Z,27.99
2018-06-30T19:26:46.832Z,28.10
2018-06-30T19:28:25.248Z,27.55
2018-06-30T19:30:00.343Z,28.76
2018-06-30T19:31:41.113Z,27.95
2018-06-30T19:33:23.769Z,28.70
2018-06-30T19:35:02.746Z,29.26
2018-06-30T19:36:39.729Z,29.17
2018-06-30T19:38:19.431Z,29.50
2018-06-30T19:40:06.706Z,29.34
2018-06-30T19:41:51.723Z,30.14
2018-06-30T19:43:30.032Z,29.20
2018-06-30T19:45:09.388Z,30.08
2018-06-30T19:46:46.960Z,30.50
2018-06-30T19:48:25.756Z,30.47
2018-06-30T19:50:06.417Z,30.93
2018-06-30T19:51:46.602Z,31.20
2018-06-30T19:53:23.247Z,31.59
2018-06-30T19:55:05.940Z,31.76
2018-06-30T19:56:44.503Z,31.32
2018-06-30T19:58:21.678Z,31.63
2018-06-30T20:00:06.385Z,31.93
2018-06-30T20:01:53.108Z,31.13
2018-06-30T20:03:30.741Z,31.39
2018-06-30T20:05:20.804Z,32.11
2018-06-30T20:07:05.380Z,31.57
2018-06-30T20:08:43.329Z,31.12
2018-06-30T20:10:22.184Z,31.36
2018-06-30T20:12:01.653Z,32.03
2018-06-30T20:13:38.926Z,31.54
2018-06-30T20:15:19.837Z,31.44
2018-06-30T20:16:56.468Z,31.28
2018-06-30T20:20:51.640Z,31.54
2018-06-30T20:22:28.967Z,32.17
2018-06-30T20:24:05.909Z,30.78
2018-06-30T20:25:51.824Z,30.83
2018-06-30T20:27:28.783Z,31.67
2018-06-30T20:29:07.403Z,32.11
2018-06-30T20:30:44.622Z,31.74
2018-06-30T20:32:22.638Z,31.30
2018-06-30T20:33:59.655Z,31.29
2018-06-30T20:35:36.299Z,32.04
2018-06-30T20:37:13.861Z,31.53
2018-06-30T20:38:51.361Z,31.73
2018-06-30T20:40:34.641Z,32.23
2018-06-30T20:42:18.977Z,32.20
2018-06-30T20:44:03.736Z,32.10
2018-06-30T20:45:45.545Z,31.40
2018-06-30T20:47:33.552Z,32.23
2018-06-30T20:49:16.326Z,32.36
2018-06-30T20:50:59.633Z,31.71
2018-06-30T20:52:37.083Z,32.15
2018-06-30T20:54:22.277Z,32.69
2018-06-30T20:56:06.675Z,32.07
2018-06-30T20:58:01.364Z,32.83
2018-06-30T20:59:39.321Z,32.35
2018-06-30T21:01:17.834Z,32.63
2018-06-30T21:02:55.543Z,33.20
2018-06-30T21:04:32.678Z,33.31
2018-06-30T21:06:08.004Z,33.30
2018-06-30T21:07:44.664Z,32.81
2018-06-30T21:09:22.765Z,33.94
2018-06-30T21:11:14.291Z,33.38
2018-06-30T21:12:58.412Z,33.41
2018-06-30T21:15:08.413Z,33.49
2018-06-30T21:16:45.997Z,33.48
2018-06-30T21:18:28.340Z,33.44
2018-06-30T21:20:05.561Z,33.84
2018-06-30T21:21:44.588Z,33.70
2018-06-30T21:23:24.062Z,33.72
2018-06-30T21:25:07.926Z,34.34
2018-06-30T21:26:53.988Z,33.83
2018-06-30T21:28:33.382Z,33.46
2018-06-30T21:30:18.511Z,34.80
2018-06-30T21:32:03.730Z,34.49